sensor_id;sensor_type;location;lat;lon;timestamp;P1;durP1;ratioP1;P2;durP2;ratioP2
27804;SDS011;15183;51.350;11.102;2022-08-19T00:01:54;7.70;;;6.88;;
27804;SDS011;15183;51.350;11.102;2022-08-19T00:04:26;8.75;;;7.85;;
27804;SDS011;15183;51.350;11.102;2022-08-19T00:06:57;8.55;;;7.65;;
27804;SDS011;15183;51.350;11.102;2022-08-19T00:09:24;8.75;;;7.57;;
27804;SDS011;15183;51.350;11.102;2022-08-19T00:11:52;9.27;;;8.30;;
27804;SDS011;15183;51.350;11.102;2022-08-19T00:14:21;8.88;;;8.02;;
27804;SDS011;15183;51.350;11.102;2022-08-19T00:16:49;9.18;;;7.68;;
27804;SDS011;15183;51.350;11.102;2022-08-19T00:19:20;12.07;;;8.30;;
27804;SDS011;15183;51.350;11.102;2022-08-19T00:21:47;9.55;;;8.55;;
27804;SDS011;15183;51.350;11.102;2022-08-19T00:24:14;8.65;;;7.38;;
27804;SDS011;15183;51.350;11.102;2022-08-19T00:26:42;9.80;;;7.72;;
27804;SDS011;15183;51.350;11.102;2022-08-19T00:29:11;8.75;;;7.75;;
27804;SDS011;15183;51.350;11.102;2022-08-19T00:31:44;8.43;;;7.63;;
27804;SDS011;15183;51.350;11.102;2022-08-19T00:34:12;8.07;;;7.28;;
27804;SDS011;15183;51.350;11.102;2022-08-19T00:36:40;8.68;;;7.78;;
27804;SDS011;15183;51.350;11.102;2022-08-19T00:39:08;8.32;;;7.53;;
27804;SDS011;15183;51.350;11.102;2022-08-19T00:41:35;8.57;;;7.70;;
27804;SDS011;15183;51.350;11.102;2022-08-19T00:46:43;9.15;;;8.25;;
27804;SDS011;15183;51.350;11.102;2022-08-19T00:49:19;8.68;;;7.78;;
27804;SDS011;15183;51.350;11.102;2022-08-19T00:51:57;9.23;;;8.32;;
27804;SDS011;15183;51.350;11.102;2022-08-19T00:54:35;9.90;;;8.90;;
27804;SDS011;15183;51.350;11.102;2022-08-19T00:57:06;11.50;;;8.52;;
27804;SDS011;15183;51.350;11.102;2022-08-19T00:59:41;10.57;;;8.68;;
27804;SDS011;15183;51.350;11.102;2022-08-19T01:02:11;10.10;;;8.23;;
27804;SDS011;15183;51.350;11.102;2022-08-19T01:04:38;10.50;;;8.82;;
27804;SDS011;15183;51.350;11.102;2022-08-19T01:07:10;10.50;;;9.32;;
27804;SDS011;15183;51.350;11.102;2022-08-19T01:09:39;10.75;;;8.30;;
27804;SDS011;15183;51.350;11.102;2022-08-19T01:12:06;14.80;;;9.90;;
27804;SDS011;15183;51.350;11.102;2022-08-19T01:14:33;11.60;;;10.27;;
27804;SDS011;15183;51.350;11.102;2022-08-19T01:17:01;11.13;;;10.05;;
27804;SDS011;15183;51.350;11.102;2022-08-19T01:19:30;10.70;;;9.60;;
27804;SDS011;15183;51.350;11.102;2022-08-19T01:25:26;10.98;;;9.77;;
27804;SDS011;15183;51.350;11.102;2022-08-19T01:28:14;10.32;;;9.23;;
27804;SDS011;15183;51.350;11.102;2022-08-19T01:30:51;10.25;;;9.25;;
27804;SDS011;15183;51.350;11.102;2022-08-19T01:33:19;11.00;;;9.80;;
27804;SDS011;15183;51.350;11.102;2022-08-19T01:35:47;10.65;;;9.48;;
27804;SDS011;15183;51.350;11.102;2022-08-19T01:38:20;11.63;;;9.57;;
27804;SDS011;15183;51.350;11.102;2022-08-19T01:40:57;11.75;;;10.20;;
27804;SDS011;15183;51.350;11.102;2022-08-19T01:43:24;12.80;;;10.10;;
27804;SDS011;15183;51.350;11.102;2022-08-19T01:45:51;11.48;;;10.25;;
27804;SDS011;15183;51.350;11.102;2022-08-19T01:48:18;10.80;;;9.70;;
27804;SDS011;15183;51.350;11.102;2022-08-19T01:50:45;10.95;;;9.85;;
27804;SDS011;15183;51.350;11.102;2022-08-19T01:53:13;12.30;;;9.90;;
27804;SDS011;15183;51.350;11.102;2022-08-19T01:55:40;11.45;;;10.05;;
27804;SDS011;15183;51.350;11.102;2022-08-19T01:58:16;12.07;;;10.73;;
27804;SDS011;15183;51.350;11.102;2022-08-19T02:00:46;11.20;;;10.00;;
27804;SDS011;15183;51.350;11.102;2022-08-19T02:03:13;13.85;;;10.30;;
27804;SDS011;15183;51.350;11.102;2022-08-19T02:05:41;10.70;;;9.60;;
27804;SDS011;15183;51.350;11.102;2022-08-19T02:08:09;10.82;;;9.75;;
27804;SDS011;15183;51.350;11.102;2022-08-19T02:10:43;11.85;;;10.35;;
27804;SDS011;15183;51.350;11.102;2022-08-19T02:13:10;11.90;;;10.68;;
27804;SDS011;15183;51.350;11.102;2022-08-19T02:15:39;11.55;;;10.40;;
27804;SDS011;15183;51.350;11.102;2022-08-19T02:18:05;13.70;;;10.68;;
27804;SDS011;15183;51.350;11.102;2022-08-19T02:20:34;12.48;;;11.18;;
27804;SDS011;15183;51.350;11.102;2022-08-19T02:23:01;13.55;;;12.15;;
27804;SDS011;15183;51.350;11.102;2022-08-19T02:25:27;12.43;;;11.23;;
27804;SDS011;15183;51.350;11.102;2022-08-19T02:27:54;13.20;;;11.90;;
27804;SDS011;15183;51.350;11.102;2022-08-19T02:30:20;12.82;;;11.45;;
27804;SDS011;15183;51.350;11.102;2022-08-19T02:32:48;14.13;;;12.73;;
27804;SDS011;15183;51.350;11.102;2022-08-19T02:35:14;14.35;;;12.90;;
27804;SDS011;15183;51.350;11.102;2022-08-19T02:37:41;16.60;;;14.20;;
27804;SDS011;15183;51.350;11.102;2022-08-19T02:40:27;16.50;;;14.80;;
27804;SDS011;15183;51.350;11.102;2022-08-19T02:42:55;19.38;;;16.08;;
27804;SDS011;15183;51.350;11.102;2022-08-19T02:45:24;20.58;;;17.40;;
27804;SDS011;15183;51.350;11.102;2022-08-19T02:47:50;20.60;;;17.42;;
27804;SDS011;15183;51.350;11.102;2022-08-19T02:50:17;23.17;;;17.65;;
27804;SDS011;15183;51.350;11.102;2022-08-19T02:52:46;21.80;;;19.02;;
27804;SDS011;15183;51.350;11.102;2022-08-19T02:55:12;20.92;;;18.73;;
27804;SDS011;15183;51.350;11.102;2022-08-19T02:57:41;21.08;;;18.85;;
27804;SDS011;15183;51.350;11.102;2022-08-19T03:00:09;21.60;;;19.35;;
27804;SDS011;15183;51.350;11.102;2022-08-19T03:02:39;22.27;;;19.88;;
27804;SDS011;15183;51.350;11.102;2022-08-19T03:05:07;21.50;;;18.80;;
27804;SDS011;15183;51.350;11.102;2022-08-19T03:07:36;20.00;;;17.88;;
27804;SDS011;15183;51.350;11.102;2022-08-19T03:10:03;21.77;;;19.15;;
27804;SDS011;15183;51.350;11.102;2022-08-19T03:12:35;22.27;;;18.73;;
27804;SDS011;15183;51.350;11.102;2022-08-19T03:15:04;22.90;;;19.77;;
27804;SDS011;15183;51.350;11.102;2022-08-19T03:17:33;25.75;;;19.13;;
27804;SDS011;15183;51.350;11.102;2022-08-19T03:20:01;21.65;;;18.58;;
27804;SDS011;15183;51.350;11.102;2022-08-19T03:22:28;21.80;;;19.48;;
27804;SDS011;15183;51.350;11.102;2022-08-19T03:24:55;22.33;;;19.08;;
27804;SDS011;15183;51.350;11.102;2022-08-19T03:27:27;23.45;;;19.10;;
27804;SDS011;15183;51.350;11.102;2022-08-19T03:29:55;21.55;;;19.10;;
27804;SDS011;15183;51.350;11.102;2022-08-19T03:32:22;21.88;;;19.33;;
27804;SDS011;15183;51.350;11.102;2022-08-19T03:34:48;20.65;;;18.08;;
27804;SDS011;15183;51.350;11.102;2022-08-19T03:37:16;23.52;;;19.05;;
27804;SDS011;15183;51.350;11.102;2022-08-19T03:39:42;20.60;;;18.42;;
27804;SDS011;15183;51.350;11.102;2022-08-19T03:42:09;20.48;;;18.10;;
27804;SDS011;15183;51.350;11.102;2022-08-19T03:44:36;22.48;;;19.80;;
27804;SDS011;15183;51.350;11.102;2022-08-19T03:47:03;25.38;;;18.58;;
27804;SDS011;15183;51.350;11.102;2022-08-19T03:49:31;23.83;;;19.88;;
27804;SDS011;15183;51.350;11.102;2022-08-19T03:52:00;22.10;;;19.02;;
27804;SDS011;15183;51.350;11.102;2022-08-19T03:54:27;22.10;;;18.80;;
27804;SDS011;15183;51.350;11.102;2022-08-19T03:56:55;23.45;;;19.92;;
27804;SDS011;15183;51.350;11.102;2022-08-19T03:59:25;21.98;;;19.50;;
27804;SDS011;15183;51.350;11.102;2022-08-19T04:02:00;22.40;;;20.08;;
27804;SDS011;15183;51.350;11.102;2022-08-19T04:04:35;21.45;;;19.15;;
27804;SDS011;15183;51.350;11.102;2022-08-19T04:07:04;25.65;;;19.65;;
27804;SDS011;15183;51.350;11.102;2022-08-19T04:09:32;23.23;;;19.63;;
27804;SDS011;15183;51.350;11.102;2022-08-19T04:12:02;21.48;;;19.27;;
27804;SDS011;15183;51.350;11.102;2022-08-19T04:14:31;21.25;;;18.95;;
27804;SDS011;15183;51.350;11.102;2022-08-19T04:16:58;22.33;;;19.92;;
27804;SDS011;15183;51.350;11.102;2022-08-19T04:19:26;24.48;;;19.42;;
27804;SDS011;15183;51.350;11.102;2022-08-19T04:21:55;20.75;;;18.40;;
27804;SDS011;15183;51.350;11.102;2022-08-19T04:24:21;25.77;;;20.00;;
27804;SDS011;15183;51.350;11.102;2022-08-19T04:26:48;25.70;;;19.92;;
27804;SDS011;15183;51.350;11.102;2022-08-19T04:29:17;23.95;;;21.10;;
27804;SDS011;15183;51.350;11.102;2022-08-19T04:31:47;25.58;;;20.50;;
27804;SDS011;15183;51.350;11.102;2022-08-19T04:34:15;24.13;;;19.23;;
27804;SDS011;15183;51.350;11.102;2022-08-19T04:36:47;26.10;;;19.77;;
27804;SDS011;15183;51.350;11.102;2022-08-19T04:39:17;24.33;;;19.83;;
27804;SDS011;15183;51.350;11.102;2022-08-19T04:42:11;22.85;;;20.23;;
27804;SDS011;15183;51.350;11.102;2022-08-19T04:44:57;20.83;;;18.60;;
27804;SDS011;15183;51.350;11.102;2022-08-19T04:47:24;22.55;;;19.50;;
27804;SDS011;15183;51.350;11.102;2022-08-19T04:49:50;23.02;;;19.52;;
27804;SDS011;15183;51.350;11.102;2022-08-19T04:52:17;28.15;;;20.90;;
27804;SDS011;15183;51.350;11.102;2022-08-19T04:54:43;22.15;;;19.75;;
27804;SDS011;15183;51.350;11.102;2022-08-19T04:57:10;25.73;;;20.50;;
27804;SDS011;15183;51.350;11.102;2022-08-19T04:59:37;22.63;;;20.20;;
27804;SDS011;15183;51.350;11.102;2022-08-19T05:02:05;23.27;;;20.13;;
27804;SDS011;15183;51.350;11.102;2022-08-19T05:04:33;21.95;;;19.75;;
27804;SDS011;15183;51.350;11.102;2022-08-19T05:07:01;23.42;;;19.70;;
27804;SDS011;15183;51.350;11.102;2022-08-19T05:09:28;22.88;;;17.73;;
27804;SDS011;15183;51.350;11.102;2022-08-19T05:11:55;22.00;;;19.15;;
27804;SDS011;15183;51.350;11.102;2022-08-19T05:14:21;20.80;;;18.50;;
27804;SDS011;15183;51.350;11.102;2022-08-19T05:16:48;23.85;;;19.25;;
27804;SDS011;15183;51.350;11.102;2022-08-19T05:19:15;27.90;;;19.90;;
27804;SDS011;15183;51.350;11.102;2022-08-19T05:22:00;20.23;;;17.88;;
27804;SDS011;15183;51.350;11.102;2022-08-19T05:24:45;21.27;;;19.07;;
27804;SDS011;15183;51.350;11.102;2022-08-19T05:27:12;23.80;;;19.33;;
27804;SDS011;15183;51.350;11.102;2022-08-19T05:29:39;19.92;;;17.83;;
27804;SDS011;15183;51.350;11.102;2022-08-19T05:32:05;23.52;;;18.10;;
27804;SDS011;15183;51.350;11.102;2022-08-19T05:34:36;21.75;;;18.65;;
27804;SDS011;15183;51.350;11.102;2022-08-19T05:37:04;21.73;;;18.55;;
27804;SDS011;15183;51.350;11.102;2022-08-19T05:39:33;22.75;;;17.55;;
27804;SDS011;15183;51.350;11.102;2022-08-19T05:42:04;22.92;;;19.38;;
27804;SDS011;15183;51.350;11.102;2022-08-19T05:44:34;19.27;;;17.33;;
27804;SDS011;15183;51.350;11.102;2022-08-19T05:47:05;21.60;;;17.48;;
27804;SDS011;15183;51.350;11.102;2022-08-19T05:49:33;20.60;;;17.65;;
27804;SDS011;15183;51.350;11.102;2022-08-19T05:52:05;19.08;;;17.08;;
27804;SDS011;15183;51.350;11.102;2022-08-19T05:54:37;19.52;;;15.93;;
27804;SDS011;15183;51.350;11.102;2022-08-19T05:57:07;17.58;;;15.70;;
27804;SDS011;15183;51.350;11.102;2022-08-19T05:59:34;18.95;;;16.02;;
27804;SDS011;15183;51.350;11.102;2022-08-19T06:02:04;19.80;;;17.10;;
27804;SDS011;15183;51.350;11.102;2022-08-19T06:04:32;18.38;;;15.60;;
27804;SDS011;15183;51.350;11.102;2022-08-19T06:06:59;16.55;;;14.15;;
27804;SDS011;15183;51.350;11.102;2022-08-19T06:09:27;16.65;;;14.13;;
27804;SDS011;15183;51.350;11.102;2022-08-19T06:11:55;19.92;;;13.70;;
27804;SDS011;15183;51.350;11.102;2022-08-19T06:14:30;27.58;;;13.98;;
27804;SDS011;15183;51.350;11.102;2022-08-19T06:17:00;16.75;;;14.15;;
27804;SDS011;15183;51.350;11.102;2022-08-19T06:19:27;17.67;;;13.18;;
27804;SDS011;15183;51.350;11.102;2022-08-19T06:21:56;14.52;;;12.20;;
27804;SDS011;15183;51.350;11.102;2022-08-19T06:24:25;14.80;;;13.10;;
27804;SDS011;15183;51.350;11.102;2022-08-19T06:26:54;14.18;;;11.80;;
27804;SDS011;15183;51.350;11.102;2022-08-19T06:29:23;19.10;;;11.98;;
27804;SDS011;15183;51.350;11.102;2022-08-19T06:31:55;20.35;;;12.13;;
27804;SDS011;15183;51.350;11.102;2022-08-19T06:34:24;13.82;;;11.82;;
27804;SDS011;15183;51.350;11.102;2022-08-19T06:36:53;18.17;;;12.10;;
27804;SDS011;15183;51.350;11.102;2022-08-19T06:39:24;18.38;;;12.48;;
27804;SDS011;15183;51.350;11.102;2022-08-19T06:41:54;14.95;;;12.68;;
27804;SDS011;15183;51.350;11.102;2022-08-19T06:44:27;15.10;;;12.40;;
27804;SDS011;15183;51.350;11.102;2022-08-19T06:47:05;14.75;;;11.95;;
27804;SDS011;15183;51.350;11.102;2022-08-19T06:49:34;16.30;;;13.15;;
27804;SDS011;15183;51.350;11.102;2022-08-19T06:52:02;18.02;;;13.02;;
27804;SDS011;15183;51.350;11.102;2022-08-19T06:54:30;16.88;;;11.93;;
27804;SDS011;15183;51.350;11.102;2022-08-19T06:57:00;16.48;;;11.68;;
27804;SDS011;15183;51.350;11.102;2022-08-19T06:59:28;22.23;;;13.20;;
27804;SDS011;15183;51.350;11.102;2022-08-19T07:01:57;15.30;;;12.40;;
27804;SDS011;15183;51.350;11.102;2022-08-19T07:04:26;17.48;;;12.35;;
27804;SDS011;15183;51.350;11.102;2022-08-19T07:06:57;14.45;;;12.63;;
27804;SDS011;15183;51.350;11.102;2022-08-19T07:09:36;14.30;;;10.85;;
27804;SDS011;15183;51.350;11.102;2022-08-19T07:12:07;16.25;;;11.88;;
27804;SDS011;15183;51.350;11.102;2022-08-19T07:14:37;19.70;;;11.85;;
27804;SDS011;15183;51.350;11.102;2022-08-19T07:17:05;14.00;;;12.45;;
27804;SDS011;15183;51.350;11.102;2022-08-19T07:19:37;12.82;;;10.85;;
27804;SDS011;15183;51.350;11.102;2022-08-19T07:22:05;13.00;;;11.13;;
27804;SDS011;15183;51.350;11.102;2022-08-19T07:24:33;12.68;;;10.88;;
27804;SDS011;15183;51.350;11.102;2022-08-19T07:27:02;16.58;;;11.80;;
27804;SDS011;15183;51.350;11.102;2022-08-19T07:29:31;13.07;;;10.52;;
27804;SDS011;15183;51.350;11.102;2022-08-19T07:32:00;15.57;;;12.00;;
27804;SDS011;15183;51.350;11.102;2022-08-19T07:34:29;13.48;;;11.35;;
27804;SDS011;15183;51.350;11.102;2022-08-19T07:37:00;14.70;;;11.85;;
27804;SDS011;15183;51.350;11.102;2022-08-19T07:39:27;12.43;;;10.57;;
27804;SDS011;15183;51.350;11.102;2022-08-19T07:41:57;13.05;;;9.80;;
27804;SDS011;15183;51.350;11.102;2022-08-19T07:44:26;11.55;;;9.93;;
27804;SDS011;15183;51.350;11.102;2022-08-19T07:46:54;12.43;;;9.80;;
27804;SDS011;15183;51.350;11.102;2022-08-19T07:49:23;9.73;;;8.48;;
27804;SDS011;15183;51.350;11.102;2022-08-19T07:51:51;11.15;;;8.35;;
27804;SDS011;15183;51.350;11.102;2022-08-19T07:54:28;9.93;;;8.35;;
27804;SDS011;15183;51.350;11.102;2022-08-19T07:57:00;10.40;;;8.35;;
27804;SDS011;15183;51.350;11.102;2022-08-19T07:59:27;8.82;;;7.70;;
27804;SDS011;15183;51.350;11.102;2022-08-19T08:01:54;12.80;;;7.90;;
27804;SDS011;15183;51.350;11.102;2022-08-19T08:04:22;8.90;;;7.88;;
27804;SDS011;15183;51.350;11.102;2022-08-19T08:07:07;7.82;;;6.63;;
27804;SDS011;15183;51.350;11.102;2022-08-19T08:09:53;9.02;;;7.40;;
27804;SDS011;15183;51.350;11.102;2022-08-19T08:12:21;8.95;;;6.85;;
27804;SDS011;15183;51.350;11.102;2022-08-19T08:14:55;7.15;;;6.30;;
27804;SDS011;15183;51.350;11.102;2022-08-19T08:17:27;7.03;;;5.60;;
27804;SDS011;15183;51.350;11.102;2022-08-19T08:19:56;7.03;;;5.32;;
27804;SDS011;15183;51.350;11.102;2022-08-19T08:22:23;6.45;;;5.35;;
27804;SDS011;15183;51.350;11.102;2022-08-19T08:25:11;10.35;;;5.97;;
27804;SDS011;15183;51.350;11.102;2022-08-19T08:27:42;7.20;;;5.50;;
27804;SDS011;15183;51.350;11.102;2022-08-19T08:30:13;7.00;;;5.45;;
27804;SDS011;15183;51.350;11.102;2022-08-19T08:32:46;8.15;;;5.50;;
27804;SDS011;15183;51.350;11.102;2022-08-19T08:35:14;5.95;;;5.45;;
27804;SDS011;15183;51.350;11.102;2022-08-19T08:37:43;5.97;;;5.25;;
27804;SDS011;15183;51.350;11.102;2022-08-19T08:43:23;5.60;;;4.90;;
27804;SDS011;15183;51.350;11.102;2022-08-19T08:46:05;7.20;;;5.63;;
27804;SDS011;15183;51.350;11.102;2022-08-19T08:51:48;7.50;;;5.72;;
27804;SDS011;15183;51.350;11.102;2022-08-19T08:54:25;7.68;;;6.88;;
27804;SDS011;15183;51.350;11.102;2022-08-19T08:57:00;9.95;;;7.10;;
27804;SDS011;15183;51.350;11.102;2022-08-19T08:59:34;11.88;;;6.60;;
27804;SDS011;15183;51.350;11.102;2022-08-19T09:02:04;7.75;;;6.95;;
27804;SDS011;15183;51.350;11.102;2022-08-19T09:04:31;8.48;;;7.18;;
27804;SDS011;15183;51.350;11.102;2022-08-19T09:09:52;10.57;;;6.97;;
27804;SDS011;15183;51.350;11.102;2022-08-19T09:15:55;11.60;;;7.57;;
27804;SDS011;15183;51.350;11.102;2022-08-19T09:18:38;8.68;;;7.13;;
27804;SDS011;15183;51.350;11.102;2022-08-19T09:21:13;8.70;;;7.10;;
27804;SDS011;15183;51.350;11.102;2022-08-19T09:23:41;13.68;;;7.90;;
27804;SDS011;15183;51.350;11.102;2022-08-19T09:26:09;9.10;;;6.50;;
27804;SDS011;15183;51.350;11.102;2022-08-19T09:28:48;6.65;;;5.75;;
27804;SDS011;15183;51.350;11.102;2022-08-19T09:31:19;8.77;;;6.30;;
27804;SDS011;15183;51.350;11.102;2022-08-19T09:33:49;6.45;;;5.80;;
27804;SDS011;15183;51.350;11.102;2022-08-19T09:36:18;11.32;;;8.32;;
27804;SDS011;15183;51.350;11.102;2022-08-19T09:38:48;7.72;;;6.10;;
27804;SDS011;15183;51.350;11.102;2022-08-19T09:41:15;9.10;;;6.82;;
27804;SDS011;15183;51.350;11.102;2022-08-19T09:43:48;9.15;;;7.53;;
27804;SDS011;15183;51.350;11.102;2022-08-19T09:46:18;9.63;;;8.38;;
27804;SDS011;15183;51.350;11.102;2022-08-19T09:48:47;10.93;;;8.00;;
27804;SDS011;15183;51.350;11.102;2022-08-19T09:51:17;9.98;;;6.78;;
27804;SDS011;15183;51.350;11.102;2022-08-19T09:53:50;11.35;;;7.57;;
27804;SDS011;15183;51.350;11.102;2022-08-19T09:56:19;6.15;;;5.10;;
27804;SDS011;15183;51.350;11.102;2022-08-19T09:58:47;4.22;;;3.67;;
27804;SDS011;15183;51.350;11.102;2022-08-19T10:01:18;4.63;;;4.25;;
27804;SDS011;15183;51.350;11.102;2022-08-19T10:03:50;4.35;;;3.63;;
27804;SDS011;15183;51.350;11.102;2022-08-19T10:06:19;3.40;;;3.10;;
27804;SDS011;15183;51.350;11.102;2022-08-19T10:08:48;3.08;;;2.88;;
27804;SDS011;15183;51.350;11.102;2022-08-19T10:11:17;3.17;;;2.88;;
27804;SDS011;15183;51.350;11.102;2022-08-19T10:13:46;2.60;;;2.40;;
27804;SDS011;15183;51.350;11.102;2022-08-19T10:16:19;2.75;;;2.55;;
27804;SDS011;15183;51.350;11.102;2022-08-19T10:18:48;3.63;;;3.33;;
27804;SDS011;15183;51.350;11.102;2022-08-19T10:21:17;3.13;;;2.70;;
27804;SDS011;15183;51.350;11.102;2022-08-19T10:23:50;2.05;;;1.85;;
27804;SDS011;15183;51.350;11.102;2022-08-19T10:26:22;2.40;;;2.20;;
27804;SDS011;15183;51.350;11.102;2022-08-19T10:28:58;2.92;;;2.60;;
27804;SDS011;15183;51.350;11.102;2022-08-19T10:31:27;3.00;;;2.33;;
27804;SDS011;15183;51.350;11.102;2022-08-19T10:33:56;3.08;;;2.10;;
27804;SDS011;15183;51.350;11.102;2022-08-19T10:36:26;2.50;;;2.30;;
27804;SDS011;15183;51.350;11.102;2022-08-19T10:39:03;2.58;;;2.38;;
27804;SDS011;15183;51.350;11.102;2022-08-19T10:41:34;3.47;;;2.40;;
27804;SDS011;15183;51.350;11.102;2022-08-19T10:44:05;5.78;;;2.22;;
27804;SDS011;15183;51.350;11.102;2022-08-19T10:46:35;2.72;;;2.50;;
27804;SDS011;15183;51.350;11.102;2022-08-19T10:49:07;2.60;;;2.47;;
27804;SDS011;15183;51.350;11.102;2022-08-19T10:51:37;2.90;;;2.70;;
27804;SDS011;15183;51.350;11.102;2022-08-19T10:54:24;3.50;;;2.53;;
27804;SDS011;15183;51.350;11.102;2022-08-19T10:57:12;2.78;;;2.53;;
27804;SDS011;15183;51.350;11.102;2022-08-19T10:59:39;2.55;;;2.40;;
27804;SDS011;15183;51.350;11.102;2022-08-19T11:02:08;2.25;;;2.03;;
27804;SDS011;15183;51.350;11.102;2022-08-19T11:04:38;2.33;;;2.13;;
27804;SDS011;15183;51.350;11.102;2022-08-19T11:07:09;3.35;;;2.30;;
27804;SDS011;15183;51.350;11.102;2022-08-19T11:09:39;2.92;;;1.80;;
27804;SDS011;15183;51.350;11.102;2022-08-19T11:12:08;2.10;;;2.00;;
27804;SDS011;15183;51.350;11.102;2022-08-19T11:14:36;3.58;;;1.90;;
27804;SDS011;15183;51.350;11.102;2022-08-19T11:17:05;3.03;;;2.78;;
27804;SDS011;15183;51.350;11.102;2022-08-19T11:19:36;5.22;;;4.38;;
27804;SDS011;15183;51.350;11.102;2022-08-19T11:22:03;4.30;;;3.90;;
27804;SDS011;15183;51.350;11.102;2022-08-19T11:24:30;5.50;;;5.00;;
27804;SDS011;15183;51.350;11.102;2022-08-19T11:27:00;4.45;;;4.05;;
27804;SDS011;15183;51.350;11.102;2022-08-19T11:29:35;3.88;;;3.53;;
27804;SDS011;15183;51.350;11.102;2022-08-19T11:32:06;4.53;;;3.60;;
27804;SDS011;15183;51.350;11.102;2022-08-19T11:34:36;3.50;;;3.20;;
27804;SDS011;15183;51.350;11.102;2022-08-19T11:37:03;2.47;;;2.28;;
27804;SDS011;15183;51.350;11.102;2022-08-19T11:39:31;3.00;;;2.78;;
27804;SDS011;15183;51.350;11.102;2022-08-19T11:42:03;3.45;;;2.72;;
27804;SDS011;15183;51.350;11.102;2022-08-19T11:44:51;5.10;;;3.42;;
27804;SDS011;15183;51.350;11.102;2022-08-19T11:47:19;2.85;;;2.60;;
27804;SDS011;15183;51.350;11.102;2022-08-19T11:49:46;2.97;;;2.72;;
27804;SDS011;15183;51.350;11.102;2022-08-19T11:52:13;2.78;;;2.50;;
27804;SDS011;15183;51.350;11.102;2022-08-19T11:54:40;3.08;;;2.85;;
27804;SDS011;15183;51.350;11.102;2022-08-19T11:57:06;4.80;;;4.30;;
27804;SDS011;15183;51.350;11.102;2022-08-19T11:59:32;4.40;;;3.80;;
27804;SDS011;15183;51.350;11.102;2022-08-19T12:01:59;4.78;;;4.13;;
27804;SDS011;15183;51.350;11.102;2022-08-19T12:04:25;3.17;;;2.95;;
27804;SDS011;15183;51.350;11.102;2022-08-19T12:06:52;3.35;;;2.70;;
27804;SDS011;15183;51.350;11.102;2022-08-19T12:09:25;2.67;;;2.25;;
27804;SDS011;15183;51.350;11.102;2022-08-19T12:11:51;3.60;;;2.75;;
27804;SDS011;15183;51.350;11.102;2022-08-19T12:14:18;3.28;;;2.45;;
27804;SDS011;15183;51.350;11.102;2022-08-19T12:16:45;2.65;;;2.45;;
27804;SDS011;15183;51.350;11.102;2022-08-19T12:19:12;2.70;;;2.45;;
27804;SDS011;15183;51.350;11.102;2022-08-19T12:21:38;2.60;;;2.30;;
27804;SDS011;15183;51.350;11.102;2022-08-19T12:24:05;2.22;;;2.05;;
27804;SDS011;15183;51.350;11.102;2022-08-19T12:26:33;3.47;;;3.15;;
27804;SDS011;15183;51.350;11.102;2022-08-19T12:29:00;2.80;;;2.47;;
27804;SDS011;15183;51.350;11.102;2022-08-19T12:31:27;2.53;;;2.33;;
27804;SDS011;15183;51.350;11.102;2022-08-19T12:33:54;2.15;;;2.00;;
27804;SDS011;15183;51.350;11.102;2022-08-19T12:36:21;2.42;;;2.05;;
27804;SDS011;15183;51.350;11.102;2022-08-19T12:38:49;2.75;;;2.10;;
27804;SDS011;15183;51.350;11.102;2022-08-19T12:41:17;3.10;;;2.40;;
27804;SDS011;15183;51.350;11.102;2022-08-19T12:43:44;2.30;;;2.08;;
27804;SDS011;15183;51.350;11.102;2022-08-19T12:46:11;2.47;;;2.28;;
27804;SDS011;15183;51.350;11.102;2022-08-19T12:48:38;1.95;;;1.75;;
27804;SDS011;15183;51.350;11.102;2022-08-19T12:51:09;2.53;;;1.90;;
27804;SDS011;15183;51.350;11.102;2022-08-19T12:53:39;2.33;;;1.75;;
27804;SDS011;15183;51.350;11.102;2022-08-19T12:56:07;2.60;;;1.70;;
27804;SDS011;15183;51.350;11.102;2022-08-19T12:58:36;2.80;;;1.58;;
27804;SDS011;15183;51.350;11.102;2022-08-19T13:01:06;2.10;;;1.75;;
27804;SDS011;15183;51.350;11.102;2022-08-19T13:03:36;1.90;;;1.80;;
27804;SDS011;15183;51.350;11.102;2022-08-19T13:06:03;2.20;;;2.00;;
27804;SDS011;15183;51.350;11.102;2022-08-19T13:08:29;3.25;;;2.03;;
27804;SDS011;15183;51.350;11.102;2022-08-19T13:10:56;1.92;;;1.55;;
27804;SDS011;15183;51.350;11.102;2022-08-19T13:13:23;2.38;;;2.08;;
27804;SDS011;15183;51.350;11.102;2022-08-19T13:15:51;2.70;;;1.90;;
27804;SDS011;15183;51.350;11.102;2022-08-19T13:18:18;3.13;;;2.17;;
27804;SDS011;15183;51.350;11.102;2022-08-19T13:20:45;2.22;;;2.13;;
27804;SDS011;15183;51.350;11.102;2022-08-19T13:23:11;2.63;;;2.42;;
27804;SDS011;15183;51.350;11.102;2022-08-19T13:25:38;2.63;;;2.40;;
27804;SDS011;15183;51.350;11.102;2022-08-19T13:28:04;6.10;;;2.75;;
27804;SDS011;15183;51.350;11.102;2022-08-19T13:30:32;2.80;;;2.60;;
27804;SDS011;15183;51.350;11.102;2022-08-19T13:33:17;3.20;;;2.90;;
27804;SDS011;15183;51.350;11.102;2022-08-19T13:35:49;3.67;;;3.38;;
27804;SDS011;15183;51.350;11.102;2022-08-19T13:38:22;3.63;;;3.33;;
27804;SDS011;15183;51.350;11.102;2022-08-19T13:40:51;5.78;;;2.90;;
27804;SDS011;15183;51.350;11.102;2022-08-19T13:43:20;3.10;;;2.72;;
27804;SDS011;15183;51.350;11.102;2022-08-19T13:45:48;2.88;;;2.67;;
27804;SDS011;15183;51.350;11.102;2022-08-19T13:48:21;3.80;;;2.95;;
27804;SDS011;15183;51.350;11.102;2022-08-19T13:50:49;2.95;;;2.75;;
27804;SDS011;15183;51.350;11.102;2022-08-19T13:53:16;3.08;;;2.88;;
27804;SDS011;15183;51.350;11.102;2022-08-19T13:55:43;3.63;;;3.10;;
27804;SDS011;15183;51.350;11.102;2022-08-19T13:58:10;3.22;;;2.92;;
27804;SDS011;15183;51.350;11.102;2022-08-19T14:00:39;3.42;;;3.13;;
27804;SDS011;15183;51.350;11.102;2022-08-19T14:03:09;4.07;;;3.33;;
27804;SDS011;15183;51.350;11.102;2022-08-19T14:05:37;3.60;;;3.30;;
27804;SDS011;15183;51.350;11.102;2022-08-19T14:08:04;4.38;;;2.80;;
27804;SDS011;15183;51.350;11.102;2022-08-19T14:10:31;8.40;;;3.78;;
27804;SDS011;15183;51.350;11.102;2022-08-19T14:13:00;3.05;;;2.83;;
27804;SDS011;15183;51.350;11.102;2022-08-19T14:15:29;3.30;;;2.80;;
27804;SDS011;15183;51.350;11.102;2022-08-19T14:17:56;3.88;;;3.47;;
27804;SDS011;15183;51.350;11.102;2022-08-19T14:20:23;3.22;;;2.97;;
27804;SDS011;15183;51.350;11.102;2022-08-19T14:22:51;5.95;;;3.40;;
27804;SDS011;15183;51.350;11.102;2022-08-19T14:25:19;5.03;;;3.33;;
27804;SDS011;15183;51.350;11.102;2022-08-19T14:27:52;3.40;;;3.10;;
27804;SDS011;15183;51.350;11.102;2022-08-19T14:30:21;3.88;;;3.10;;
27804;SDS011;15183;51.350;11.102;2022-08-19T14:32:54;5.22;;;3.53;;
27804;SDS011;15183;51.350;11.102;2022-08-19T14:35:23;9.02;;;3.72;;
27804;SDS011;15183;51.350;11.102;2022-08-19T14:37:52;4.82;;;3.45;;
27804;SDS011;15183;51.350;11.102;2022-08-19T14:40:22;3.88;;;3.05;;
27804;SDS011;15183;51.350;11.102;2022-08-19T14:42:53;3.83;;;3.13;;
27804;SDS011;15183;51.350;11.102;2022-08-19T14:45:33;3.05;;;2.75;;
27804;SDS011;15183;51.350;11.102;2022-08-19T14:48:06;5.00;;;3.67;;
27804;SDS011;15183;51.350;11.102;2022-08-19T14:50:33;3.33;;;3.05;;
27804;SDS011;15183;51.350;11.102;2022-08-19T14:53:03;3.50;;;2.97;;
27804;SDS011;15183;51.350;11.102;2022-08-19T14:55:33;3.30;;;3.10;;
27804;SDS011;15183;51.350;11.102;2022-08-19T14:58:00;3.67;;;3.38;;